Time;durP1;ratioP1;P1;durP2;ratioP2;P2;SDS_P1;SDS_P2;PMS_P1;PMS_P2;Temp;Humidity;BMP_temperature;BMP_pressure;BME280_temperature;BME280_humidity;BME280_pressure;Samples;Min_cycle;Max_cycle;Signal;HPM_P1;HPM_P2
2020/12/21 00:00:07;;;;;;;24.70;18.20;;;;;;;0.11;100.00;98832.19;5002482;28;20288;-70
2020/12/21 00:02:34;;;;;;;24.50;18.77;;;;;;;0.19;100.00;98824.00;5004170;28;20208;-71
2020/12/21 00:05:01;;;;;;;21.53;17.13;;;;;;;0.18;100.00;98832.75;4990261;28;20469;-72
2020/12/21 00:07:29;;;;;;;22.37;18.23;;;;;;;0.27;100.00;98835.72;5017863;28;20558;-73
2020/12/21 00:09:56;;;;;;;21.47;17.63;;;;;;;0.25;100.00;98837.56;5003699;28;20619;-73
2020/12/21 00:12:23;;;;;;;20.77;16.20;;;;;;;0.34;100.00;98831.03;5001407;28;20213;-72
2020/12/21 00:14:50;;;;;;;20.60;17.17;;;;;;;0.07;100.00;98821.09;5008214;28;20205;-73
2020/12/21 00:17:17;;;;;;;24.90;17.33;;;;;;;0.25;100.00;98834.97;5010083;28;20240;-71
2020/12/21 00:19:44;;;;;;;21.03;17.13;;;;;;;0.30;100.00;98839.09;4985704;28;20428;-72
2020/12/21 00:22:11;;;;;;;21.60;17.93;;;;;;;0.40;100.00;98842.91;5006801;28;20209;-70
2020/12/21 00:24:39;;;;;;;21.23;16.20;;;;;;;0.19;100.00;98840.50;5003579;28;20216;-72
2020/12/21 00:27:06;;;;;;;20.07;16.63;;;;;;;0.27;100.00;98840.09;4999542;28;20221;-72
2020/12/21 00:29:33;;;;;;;20.07;15.90;;;;;;;0.36;100.00;98844.81;5005051;28;20251;-73
2020/12/21 00:32:00;;;;;;;19.47;16.40;;;;;;;0.34;100.00;98843.25;5004645;28;20204;-72
2020/12/21 00:34:28;;;;;;;19.33;16.60;;;;;;;0.37;100.00;98846.50;5008610;28;20241;-71
2020/12/21 00:36:55;;;;;;;22.70;16.93;;;;;;;0.38;100.00;98844.75;4992226;28;20568;-71
2020/12/21 00:39:22;;;;;;;19.83;15.97;;;;;;;0.34;100.00;98848.44;5010890;28;20479;-71
2020/12/21 00:41:50;;;;;;;20.13;16.43;;;;;;;0.19;100.00;98840.50;5000288;28;20205;-70
2020/12/21 00:44:17;;;;;;;22.10;16.97;;;;;;;0.41;100.00;98845.47;5005330;28;20636;-73
2020/12/21 00:46:45;;;;;;;23.07;18.53;;;;;;;0.43;100.00;98847.97;5010693;28;20213;-70
2020/12/21 00:49:12;;;;;;;18.50;15.30;;;;;;;0.42;100.00;98846.28;5008381;28;21031;-71
2020/12/21 00:51:39;;;;;;;18.87;14.83;;;;;;;0.47;100.00;98849.50;4999809;28;20231;-70
2020/12/21 00:54:06;;;;;;;20.13;16.23;;;;;;;0.54;100.00;98850.88;5004348;28;20224;-71
2020/12/21 00:56:34;;;;;;;20.40;16.53;;;;;;;0.53;100.00;98845.75;5007768;28;20632;-71
2020/12/21 00:59:02;;;;;;;21.23;16.97;;;;;;;0.51;100.00;98842.38;4996494;28;20217;-73
2020/12/21 01:01:29;;;;;;;18.33;15.13;;;;;;;0.53;100.00;98850.97;5011401;28;20731;-71
2020/12/21 01:04:00;;;;;;;17.10;15.17;;;;;;;0.46;100.00;98852.19;5017135;28;20213;-73
2020/12/21 01:06:28;;;;;;;21.93;16.03;;;;;;;0.41;100.00;98848.06;4990570;28;20220;-72
2020/12/21 01:08:56;;;;;;;18.77;16.80;;;;;;;0.49;100.00;98842.44;5014019;28;20384;-72
2020/12/21 01:11:23;;;;;;;21.30;15.00;;;;;;;0.55;100.00;98849.13;5013777;28;20197;-74
2020/12/21 01:13:50;;;;;;;21.20;17.07;;;;;;;0.43;100.00;98843.63;5001752;28;20208;-73
2020/12/21 01:16:20;;;;;;;20.60;16.13;;;;;;;0.55;100.00;98836.06;5008674;28;20610;-73
2020/12/21 01:18:48;;;;;;;18.73;14.80;;;;;;;0.48;100.00;98832.94;5013355;28;20309;-72
2020/12/21 01:21:23;;;;;;;17.17;14.90;;;;;;;0.26;100.00;98839.25;5011313;28;20227;-74
2020/12/21 01:23:50;;;;;;;20.17;15.30;;;;;;;0.40;100.00;98849.00;4997605;28;20226;-70
2020/12/21 01:26:17;;;;;;;19.17;15.33;;;;;;;0.43;100.00;98851.44;5015762;28;20224;-74
2020/12/21 01:28:44;;;;;;;19.93;15.70;;;;;;;0.54;100.00;98861.28;5019488;28;20274;-73
2020/12/21 01:31:11;;;;;;;19.13;16.07;;;;;;;0.40;100.00;98863.78;5005063;28;20601;-74
2020/12/21 01:33:39;;;;;;;19.93;15.90;;;;;;;0.57;100.00;98861.16;5013819;28;20442;-71
2020/12/21 01:36:06;;;;;;;18.63;15.50;;;;;;;0.46;100.00;98855.63;5005445;28;20212;-71
2020/12/21 01:38:33;;;;;;;20.03;15.10;;;;;;;0.49;100.00;98859.88;4989497;28;20506;-72
2020/12/21 01:41:00;;;;;;;16.60;14.33;;;;;;;0.48;100.00;98860.78;5014105;28;20223;-72
2020/12/21 01:43:28;;;;;;;16.93;14.60;;;;;;;0.51;100.00;98864.06;5010388;28;20212;-73
2020/12/21 01:45:55;;;;;;;18.07;14.47;;;;;;;0.61;100.00;98851.41;4995903;28;20247;-72
2020/12/21 01:48:22;;;;;;;17.07;13.83;;;;;;;0.57;100.00;98855.09;5012755;28;20673;-72
2020/12/21 01:50:50;;;;;;;17.13;13.93;;;;;;;0.55;100.00;98849.13;5011516;28;20197;-72
2020/12/21 01:53:18;;;;;;;17.20;14.60;;;;;;;0.53;100.00;98850.97;4998760;28;20231;-75
2020/12/21 01:55:48;;;;;;;15.23;13.23;;;;;;;0.47;100.00;98854.72;5001699;28;20553;-72
2020/12/21 01:58:15;;;;;;;16.33;14.13;;;;;;;0.48;100.00;98845.97;5010676;28;20224;-73
2020/12/21 02:00:42;;;;;;;17.83;15.20;;;;;;;0.38;100.00;98849.97;4999217;28;20213;-72
2020/12/21 02:03:09;;;;;;;16.23;13.00;;;;;;;0.47;100.00;98857.31;5014497;28;20564;-72
2020/12/21 02:05:37;;;;;;;15.03;13.20;;;;;;;0.32;100.00;98858.13;5002192;28;20224;-73
2020/12/21 02:08:06;;;;;;;14.73;13.23;;;;;;;0.46;100.00;98857.41;5009230;28;20673;-71
2020/12/21 02:10:33;;;;;;;16.90;12.80;;;;;;;0.34;100.00;98856.28;4986680;28;20221;-73
2020/12/21 02:13:00;;;;;;;14.93;13.33;;;;;;;0.31;100.00;98854.66;5012645;28;20318;-72
2020/12/21 02:15:28;;;;;;;12.80;11.50;;;;;;;0.38;100.00;98850.84;5002702;28;20446;-70
2020/12/21 02:17:55;;;;;;;14.17;12.53;;;;;;;0.30;100.00;98850.34;5010290;28;20228;-71
2020/12/21 02:20:29;;;;;;;15.60;13.23;;;;;;;0.28;100.00;98854.81;5004740;28;20210;-72
2020/12/21 02:22:56;;;;;;;14.97;12.93;;;;;;;0.46;100.00;98853.03;5013247;28;20214;-71
2020/12/21 02:25:23;;;;;;;16.00;13.00;;;;;;;0.49;100.00;98845.03;4989624;28;20212;-72
2020/12/21 02:27:50;;;;;;;15.43;13.00;;;;;;;0.52;100.00;98851.88;5013463;28;20236;-72
2020/12/21 02:30:17;;;;;;;15.17;13.57;;;;;;;0.50;100.00;98849.34;5005808;28;20211;-72
2020/12/21 02:32:44;;;;;;;14.07;12.17;;;;;;;0.54;100.00;98848.25;5007533;28;20866;-72
2020/12/21 02:35:11;;;;;;;15.17;12.70;;;;;;;0.58;100.00;98843.72;5017948;28;20231;-70
2020/12/21 02:37:39;;;;;;;15.33;12.57;;;;;;;0.53;100.00;98845.75;5011752;28;20573;-71
2020/12/21 02:40:07;;;;;;;13.53;12.17;;;;;;;0.59;100.00;98842.81;4985678;28;20212;-74
2020/12/21 02:42:34;;;;;;;21.33;14.03;;;;;;;0.58;100.00;98838.50;5009457;28;20433;-73
2020/12/21 02:45:01;;;;;;;15.30;12.73;;;;;;;0.64;100.00;98834.75;5011462;28;20200;-73
2020/12/21 02:47:29;;;;;;;15.63;12.87;;;;;;;0.40;100.00;98828.13;5003241;28;20838;-73
2020/12/21 02:49:56;;;;;;;17.90;13.37;;;;;;;0.61;100.00;98824.47;5012733;28;20204;-73
2020/12/21 02:52:23;;;;;;;14.63;12.63;;;;;;;0.54;100.00;98837.81;5010003;28;20727;-75
2020/12/21 02:54:51;;;;;;;13.73;12.27;;;;;;;0.54;100.00;98845.66;5014012;28;20212;-73
2020/12/21 02:57:18;;;;;;;14.97;11.63;;;;;;;0.56;100.00;98849.03;4984578;28;20224;-73
2020/12/21 02:59:46;;;;;;;14.63;13.07;;;;;;;0.49;100.00;98847.66;5016494;28;20269;-76
2020/12/21 03:02:13;;;;;;;15.43;13.73;;;;;;;0.60;100.00;98856.72;5002667;28;20646;-70
2020/12/21 03:04:41;;;;;;;13.80;12.37;;;;;;;0.61;100.00;98861.00;5006197;28;20204;-74
2020/12/21 03:07:08;;;;;;;16.60;12.93;;;;;;;0.69;100.00;98854.44;5013187;28;20228;-73
2020/12/21 03:09:35;;;;;;;14.80;12.73;;;;;;;0.59;100.00;98860.25;5012833;28;20232;-73
2020/12/21 03:12:03;;;;;;;15.13;11.60;;;;;;;0.62;100.00;98857.47;4986207;28;20347;-73
2020/12/21 03:14:30;;;;;;;13.47;12.07;;;;;;;0.58;100.00;98856.78;5009872;28;20205;-74
2020/12/21 03:16:57;;;;;;;13.47;11.53;;;;;;;0.72;100.00;98848.22;5012353;28;20196;-74
2020/12/21 03:19:24;;;;;;;14.50;12.03;;;;;;;0.56;100.00;98858.63;4998165;28;20197;-73
2020/12/21 03:21:51;;;;;;;14.00;12.47;;;;;;;0.57;100.00;98861.16;5011179;28;20227;-73
2020/12/21 03:24:18;;;;;;;14.50;11.67;;;;;;;0.67;100.00;98858.06;5013980;28;20201;-72
2020/12/21 03:26:45;;;;;;;12.23;10.93;;;;;;;0.77;100.00;98861.88;4989528;28;20244;-73
2020/12/21 03:29:14;;;;;;;13.67;12.27;;;;;;;0.67;100.00;98860.69;5012701;28;20228;-72
2020/12/21 03:31:42;;;;;;;13.63;11.37;;;;;;;0.73;100.00;98857.75;5006286;28;20213;-74
2020/12/21 03:34:09;;;;;;;15.00;12.20;;;;;;;0.61;100.00;98851.41;4998403;28;20228;-72
2020/12/21 03:36:36;;;;;;;14.93;12.70;;;;;;;0.59;100.00;98848.03;5002748;28;20834;-74
2020/12/21 03:39:03;;;;;;;14.30;12.07;;;;;;;0.70;100.00;98839.66;5004142;28;20463;-73
2020/12/21 03:41:30;;;;;;;16.03;13.10;;;;;;;0.67;100.00;98839.81;4998741;28;20574;-75
2020/12/21 03:43:57;;;;;;;15.13;12.47;;;;;;;0.60;100.00;98834.06;4966492;28;20414;-75
2020/12/21 03:46:25;;;;;;;15.97;12.83;;;;;;;0.64;100.00;98829.53;5000556;28;20229;-74
2020/12/21 03:48:52;;;;;;;14.73;12.70;;;;;;;0.71;100.00;98828.28;4984593;28;20230;-73
2020/12/21 03:51:19;;;;;;;17.37;13.07;;;;;;;0.67;100.00;98835.41;4992917;28;20353;-74
2020/12/21 03:53:46;;;;;;;15.27;12.57;;;;;;;0.62;100.00;98828.78;4995982;28;20661;-74
2020/12/21 03:56:13;;;;;;;16.97;13.50;;;;;;;0.67;100.00;98826.78;5000940;28;20471;-74
2020/12/21 03:58:41;;;;;;;15.20;12.53;;;;;;;0.64;100.00;98825.16;4972892;28;20228;-75
2020/12/21 04:01:08;;;;;;;16.13;12.83;;;;;;;0.69;100.00;98824.91;5004027;28;20571;-73
2020/12/21 04:03:36;;;;;;;15.63;12.77;;;;;;;0.59;100.00;98826.34;5009077;28;20215;-75
2020/12/21 04:06:04;;;;;;;18.03;14.00;;;;;;;0.62;100.00;98819.16;4989157;28;20331;-73
2020/12/21 04:08:31;;;;;;;17.67;13.20;;;;;;;0.61;100.00;98822.69;5005797;28;20240;-74
2020/12/21 04:10:58;;;;;;;15.80;13.50;;;;;;;0.45;100.00;98824.44;5001579;28;20750;-74
2020/12/21 04:13:26;;;;;;;16.53;12.70;;;;;;;0.47;100.00;98823.41;4970176;28;20267;-74
2020/12/21 04:16:03;;;;;;;15.63;13.33;;;;;;;0.28;100.00;98828.75;5010593;28;20370;-73
2020/12/21 04:18:30;;;;;;;15.43;13.23;;;;;;;0.30;100.00;98823.47;5008712;28;20232;-76
2020/12/21 04:20:58;;;;;;;15.97;13.10;;;;;;;0.37;100.00;98817.00;4978713;28;20205;-73
2020/12/21 04:23:25;;;;;;;18.20;13.93;;;;;;;0.23;100.00;98817.69;5011080;28;20219;-75
2020/12/21 04:25:54;;;;;;;20.30;14.53;;;;;;;0.23;100.00;98817.69;4985100;28;21567;-73
2020/12/21 04:28:22;;;;;;;19.63;13.47;;;;;;;0.22;100.00;98819.50;4971470;28;20229;-73
2020/12/21 04:30:49;;;;;;;18.10;14.57;;;;;;;0.30;100.00;98820.84;4989245;28;20213;-73
2020/12/21 04:33:16;;;;;;;20.17;14.43;;;;;;;0.35;100.00;98829.28;5006238;28;20375;-73
2020/12/21 04:36:02;;;;;;;18.80;14.13;;;;;;;0.22;100.00;98852.50;4991017;28;20223;-74
2020/12/21 04:38:29;;;;;;;16.30;13.27;;;;;;;0.17;100.00;98839.69;5005923;28;20805;-74
2020/12/21 04:40:57;;;;;;;18.27;13.60;;;;;;;0.09;100.00;98853.13;5009041;28;20208;-75
2020/12/21 04:43:25;;;;;;;15.40;11.97;;;;;;;0.13;100.00;98856.41;4967309;28;20217;-76
2020/12/21 04:45:54;;;;;;;16.40;14.00;;;;;;;0.14;100.00;98853.75;4992901;28;20428;-75
2020/12/21 04:48:22;;;;;;;18.63;14.17;;;;;;;0.24;100.00;98846.31;5006926;28;20463;-74
2020/12/21 04:50:52;;;;;;;18.70;14.60;;;;;;;0.31;100.00;98859.03;5010675;28;20458;-75
2020/12/21 04:53:20;;;;;;;18.10;14.77;;;;;;;0.43;100.00;98853.19;4988603;28;20779;-75
2020/12/21 04:55:47;;;;;;;17.80;15.23;;;;;;;0.48;100.00;98847.75;5010334;28;20451;-75
2020/12/21 04:58:14;;;;;;;16.57;14.23;;;;;;;0.41;100.00;98845.47;4974837;28;20224;-74
2020/12/21 05:00:42;;;;;;;20.90;14.57;;;;;;;0.42;100.00;98844.53;5005558;28;20266;-75
2020/12/21 05:03:09;;;;;;;17.73;13.73;;;;;;;0.49;100.00;98839.00;5006179;28;20443;-74
2020/12/21 05:05:37;;;;;;;16.90;13.73;;;;;;;0.39;100.00;98846.44;5006032;28;20668;-75
2020/12/21 05:08:10;;;;;;;16.07;13.83;;;;;;;0.37;100.00;98837.88;4991074;28;20240;-73
2020/12/21 05:10:39;;;;;;;16.93;14.00;;;;;;;0.35;100.00;98839.72;5002177;28;20790;-73
2020/12/21 05:13:08;;;;;;;22.10;13.60;;;;;;;0.39;100.00;98847.31;4993555;28;20215;-73
2020/12/21 05:15:35;;;;;;;15.57;12.57;;;;;;;0.51;100.00;98845.81;4968670;28;20228;-74
2020/12/21 05:18:12;;;;;;;15.93;12.77;;;;;;;0.50;100.00;98838.09;5002845;28;20781;-73
2020/12/21 05:20:40;;;;;;;23.40;15.63;;;;;;;0.34;100.00;98832.81;5000010;28;20228;-71
2020/12/21 05:23:15;;;;;;;20.13;14.47;;;;;;;0.48;100.00;98829.50;4979600;28;20220;-76
2020/12/21 05:25:43;;;;;;;18.83;14.93;;;;;;;0.43;100.00;98824.50;4980250;28;20212;-76
2020/12/21 05:28:12;;;;;;;19.47;15.53;;;;;;;0.53;100.00;98833.53;4997723;28;20233;-76
2020/12/21 05:30:51;;;;;;;18.97;15.70;;;;;;;0.50;100.00;98835.47;4961347;28;20376;-76
2020/12/21 05:33:18;;;;;;;18.47;14.63;;;;;;;0.32;100.00;98827.66;5001331;28;20203;-75
2020/12/21 05:35:46;;;;;;;22.57;15.10;;;;;;;0.44;100.00;98826.19;5003249;28;20667;-76
2020/12/21 05:38:27;;;;;;;19.43;14.53;;;;;;;0.53;100.00;98833.53;4993840;28;20502;-77
2020/12/21 05:41:07;;;;;;;20.63;16.03;;;;;;;0.47;100.00;98823.41;5005774;28;20431;-75
2020/12/21 05:43:37;;;;;;;20.53;15.53;;;;;;;0.54;100.00;98829.16;4999645;28;20251;-76
2020/12/21 05:46:10;;;;;;;22.33;14.77;;;;;;;0.51;100.00;98818.91;4957390;28;20836;-77
2020/12/21 05:48:40;;;;;;;25.10;16.73;;;;;;;0.62;100.00;98819.16;5001276;28;20221;-75
2020/12/21 05:51:08;;;;;;;20.33;15.30;;;;;;;0.63;100.00;98817.41;5005505;28;20403;-78
2020/12/21 05:53:40;;;;;;;19.93;15.80;;;;;;;0.55;100.00;98807.38;4999239;28;20215;-76
2020/12/21 05:56:09;;;;;;;21.10;15.73;;;;;;;0.61;100.00;98812.28;4996879;28;20311;-72
2020/12/21 05:58:37;;;;;;;23.97;15.23;;;;;;;0.59;100.00;98811.50;5002700;28;20220;-74
2020/12/21 06:01:06;;;;;;;23.97;14.97;;;;;;;0.63;100.00;98822.63;4964399;28;21450;-71
2020/12/21 06:03:44;;;;;;;25.33;17.20;;;;;;;0.68;100.00;98825.84;4988442;28;20454;-73
2020/12/21 06:06:16;;;;;;;21.57;16.30;;;;;;;0.56;100.00;98833.38;5000545;28;20228;-73
2020/12/21 06:08:45;;;;;;;23.70;17.63;;;;;;;0.62;100.00;98831.38;5006706;28;20227;-75
2020/12/21 06:11:14;;;;;;;23.77;17.07;;;;;;;0.59;100.00;98828.94;4988599;28;20668;-73
2020/12/21 06:13:45;;;;;;;23.80;16.57;;;;;;;0.68;100.00;98831.06;4998458;28;20205;-73
2020/12/21 06:16:15;;;;;;;22.30;15.97;;;;;;;0.62;100.00;98834.00;5004493;28;20600;-73
2020/12/21 06:18:42;;;;;;;24.90;16.80;;;;;;;0.61;100.00;98846.19;4959449;28;20239;-74
2020/12/21 06:21:09;;;;;;;23.67;16.83;;;;;;;0.68;100.00;98842.31;5007924;28;20204;-73
2020/12/21 06:23:38;;;;;;;21.83;17.10;;;;;;;0.66;100.00;98832.91;5005390;28;20213;-74
2020/12/21 06:26:09;;;;;;;29.47;17.27;;;;;;;0.72;100.00;98835.19;4990066;28;20399;-72
2020/12/21 06:28:38;;;;;;;23.57;16.87;;;;;;;0.72;100.00;98830.81;5009414;28;20251;-73
2020/12/21 06:31:18;;;;;;;29.87;18.57;;;;;;;0.72;100.00;98828.19;5004375;28;20200;-73
2020/12/21 06:33:46;;;;;;;25.13;16.37;;;;;;;0.74;100.00;98829.88;4963397;28;20243;-73
2020/12/21 06:36:14;;;;;;;23.80;16.37;;;;;;;0.64;100.00;98830.38;5008146;28;20439;-71
2020/12/21 06:38:46;;;;;;;30.93;19.23;;;;;;;0.79;100.00;98833.94;5002822;28;20228;-75
2020/12/21 06:41:19;;;;;;;23.37;17.37;;;;;;;0.79;100.00;98833.09;4990929;28;20419;-72
2020/12/21 06:44:04;;;;;;;24.63;17.23;;;;;;;0.86;100.00;98826.63;5001475;28;20497;-73
2020/12/21 06:46:32;;;;;;;25.83;17.17;;;;;;;0.81;100.00;98831.25;4990140;28;20231;-74
2020/12/21 06:49:13;;;;;;;26.77;17.10;;;;;;;0.83;100.00;98832.84;4951915;28;20227;-72
2020/12/21 06:51:46;;;;;;;22.63;16.07;;;;;;;0.88;100.00;98836.97;5004272;28;20693;-71
2020/12/21 06:54:14;;;;;;;23.80;16.33;;;;;;;0.86;100.00;98830.06;5006985;28;20209;-72
2020/12/21 06:56:42;;;;;;;26.00;17.20;;;;;;;0.78;100.00;98841.88;4991173;28;20208;-71
2020/12/21 06:59:12;;;;;;;25.63;17.83;;;;;;;0.79;100.00;98838.31;5006025;28;20216;-74
2020/12/21 07:01:41;;;;;;;21.20;16.77;;;;;;;0.92;100.00;98839.34;5000358;28;20531;-72
2020/12/21 07:04:15;;;;;;;21.63;15.90;;;;;;;0.89;100.00;98843.88;4969836;28;20669;-74
2020/12/21 07:06:43;;;;;;;25.37;16.87;;;;;;;0.81;100.00;98845.13;5004639;28;20225;-73
2020/12/21 07:09:11;;;;;;;27.23;17.90;;;;;;;0.89;100.00;98841.28;5005788;28;20220;-74
2020/12/21 07:11:39;;;;;;;26.23;17.17;;;;;;;0.91;100.00;98839.41;4992119;28;20791;-73
2020/12/21 07:14:07;;;;;;;23.17;16.67;;;;;;;0.84;100.00;98837.13;5001865;28;20204;-73
2020/12/21 07:16:35;;;;;;;25.43;17.67;;;;;;;0.92;100.00;98833.28;4995209;28;20406;-72
2020/12/21 07:19:02;;;;;;;26.80;18.20;;;;;;;1.07;100.00;98834.22;5006705;28;20235;-71
2020/12/21 07:21:29;;;;;;;30.63;19.13;;;;;;;1.11;100.00;98843.56;4968373;28;20561;-71
2020/12/21 07:23:57;;;;;;;29.07;19.03;;;;;;;1.18;100.00;98838.88;5009447;28;20204;-72
2020/12/21 07:26:25;;;;;;;27.87;17.67;;;;;;;1.12;100.00;98834.81;5007609;28;20239;-70
2020/12/21 07:28:52;;;;;;;27.90;17.87;;;;;;;1.05;100.00;98829.09;4998342;28;20243;-72
2020/12/21 07:31:21;;;;;;;32.80;19.53;;;;;;;1.06;100.00;98836.00;5006722;28;20301;-72
2020/12/21 07:33:54;;;;;;;28.53;18.73;;;;;;;0.93;100.00;98835.81;5007420;28;20234;-72
2020/12/21 07:36:22;;;;;;;24.97;17.20;;;;;;;1.10;100.00;98839.28;4960438;28;20224;-71
2020/12/21 07:38:49;;;;;;;29.90;18.30;;;;;;;1.17;100.00;98842.41;5004037;28;20251;-71
2020/12/21 07:41:17;;;;;;;30.23;20.17;;;;;;;1.19;100.00;98848.38;5009790;28;20211;-71
2020/12/21 07:43:45;;;;;;;28.40;18.23;;;;;;;1.30;100.00;98841.66;4987011;28;20213;-72
2020/12/21 07:46:20;;;;;;;36.50;24.10;;;;;;;1.37;100.00;98830.84;5012891;28;20204;-70
2020/12/21 07:48:47;;;;;;;29.17;21.27;;;;;;;1.33;100.00;98840.66;4996826;28;20533;-70
2020/12/21 07:51:19;;;;;;;28.13;17.97;;;;;;;1.37;100.00;98836.94;4958986;28;20217;-69
2020/12/21 07:53:47;;;;;;;25.57;17.77;;;;;;;1.39;100.00;98836.84;5003226;28;20850;-70
2020/12/21 07:56:14;;;;;;;26.47;17.57;;;;;;;1.33;100.00;98840.66;5006081;28;20451;-70
2020/12/21 07:58:42;;;;;;;28.63;18.93;;;;;;;1.37;100.00;98839.56;4993467;28;20224;-72
2020/12/21 08:01:10;;;;;;;30.93;19.10;;;;;;;1.45;100.00;98831.28;5004929;28;20203;-71
2020/12/21 08:03:38;;;;;;;91.77;64.03;;;;;;;1.46;100.00;98832.13;5008021;28;20236;-71
2020/12/21 08:06:06;;;;;;;39.13;29.87;;;;;;;1.69;100.00;98838.66;4972220;28;20216;-70
2020/12/21 08:08:34;;;;;;;33.80;24.37;;;;;;;1.74;100.00;98839.25;4992304;28;20631;-71
2020/12/21 08:11:03;;;;;;;31.63;19.40;;;;;;;1.68;100.00;98853.50;5009615;28;20406;-71
2020/12/21 08:13:30;;;;;;;28.50;18.53;;;;;;;1.90;100.00;98833.16;5006348;28;20669;-72
2020/12/21 08:16:07;;;;;;;28.93;19.87;;;;;;;1.93;100.00;98827.75;4991066;28;20610;-72
2020/12/21 08:18:34;;;;;;;28.63;20.13;;;;;;;1.92;100.00;98820.84;4997594;28;20247;-74
2020/12/21 08:21:02;;;;;;;34.97;20.97;;;;;;;1.82;100.00;98810.91;4967778;28;22503;-73
2020/12/21 08:23:30;;;;;;;30.90;21.30;;;;;;;1.80;100.00;98811.94;4996235;28;20303;-72
2020/12/21 08:25:58;;;;;;;30.53;21.53;;;;;;;1.83;100.00;98811.75;5008219;28;20445;-69
2020/12/21 08:28:33;;;;;;;31.17;19.67;;;;;;;1.76;100.00;98813.88;5003133;28;20336;-71
2020/12/21 08:31:08;;;;;;;28.70;18.47;;;;;;;1.76;100.00;98816.47;4992067;28;20208;-72
2020/12/21 08:33:35;;;;;;;22.93;18.53;;;;;;;1.82;100.00;98815.28;4994028;28;20211;-74
2020/12/21 08:36:19;;;;;;;29.77;19.70;;;;;;;1.87;100.00;98816.69;5007708;28;20803;-72
2020/12/21 08:38:47;;;;;;;24.57;18.43;;;;;;;1.87;100.00;98816.69;4949236;28;20651;-72
2020/12/21 08:41:15;;;;;;;30.53;20.77;;;;;;;1.79;100.00;98810.25;5003835;28;20472;-74
2020/12/21 08:43:42;;;;;;;28.57;19.97;;;;;;;1.70;100.00;98819.44;5005159;28;20200;-73
2020/12/21 08:46:11;;;;;;;28.30;20.07;;;;;;;1.75;100.00;98811.34;4987880;28;20248;-71
2020/12/21 08:48:43;;;;;;;25.90;19.33;;;;;;;1.65;100.00;98806.63;5001145;28;20228;-73
2020/12/21 08:51:11;;;;;;;25.07;18.57;;;;;;;1.66;100.00;98804.88;5004779;28;20209;-73
2020/12/21 08:53:57;;;;;;;33.47;20.93;;;;;;;1.48;100.00;98798.91;4951019;28;20303;-72
2020/12/21 08:56:25;;;;;;;29.43;20.30;;;;;;;1.56;100.00;98791.50;5002552;28;20763;-70
2020/12/21 08:58:52;;;;;;;31.10;20.67;;;;;;;1.56;100.00;98799.31;5007454;28;20748;-71
2020/12/21 09:01:19;;;;;;;29.63;21.70;;;;;;;1.47;100.00;98800.69;5007197;28;20642;-71
2020/12/21 09:03:46;;;;;;;33.10;22.50;;;;;;;1.41;100.00;98811.47;4988327;28;20220;-70
2020/12/21 09:06:21;;;;;;;33.63;22.13;;;;;;;1.64;100.00;98804.94;5002366;28;20201;-70
2020/12/21 09:08:56;;;;;;;34.93;24.23;;;;;;;1.65;100.00;98797.97;4966680;28;20339;-72
2020/12/21 09:11:25;;;;;;;33.80;25.07;;;;;;;1.65;100.00;98801.41;4990689;28;20319;-71
2020/12/21 09:13:52;;;;;;;31.60;24.67;;;;;;;1.57;100.00;98811.47;4984616;28;20260;-69
2020/12/21 09:16:22;;;;;;;30.60;21.57;;;;;;;1.73;100.00;98799.22;5006183;28;20255;-72
2020/12/21 09:18:50;;;;;;;30.37;21.83;;;;;;;1.61;100.00;98802.50;4987471;28;20420;-72
2020/12/21 09:21:19;;;;;;;29.23;22.93;;;;;;;1.76;100.00;98802.59;5004764;28;20892;-71
2020/12/21 09:23:46;;;;;;;30.70;22.27;;;;;;;1.91;100.00;98804.31;4964068;28;20704;-71
2020/12/21 09:26:13;;;;;;;32.40;22.10;;;;;;;2.01;100.00;98802.81;4967829;28;836547;-70
2020/12/21 09:28:43;;;;;;;35.30;23.40;;;;;;;1.96;100.00;98804.03;5004609;28;20224;-70
2020/12/21 09:31:10;;;;;;;31.23;22.37;;;;;;;1.87;100.00;98805.41;4992659;28;20220;-70
2020/12/21 09:33:43;;;;;;;32.37;21.30;;;;;;;1.93;100.00;98802.44;4991699;28;20231;-70
2020/12/21 09:36:11;;;;;;;26.13;20.33;;;;;;;2.16;100.00;98808.94;5003797;28;20200;-70
2020/12/21 09:38:38;;;;;;;28.07;21.13;;;;;;;2.17;100.00;98802.78;4970492;28;20796;-72
2020/12/21 09:41:05;;;;;;;31.03;21.53;;;;;;;2.24;100.00;98803.25;5009132;28;20235;-71
2020/12/21 09:43:33;;;;;;;29.90;21.37;;;;;;;2.15;100.00;98793.34;4991193;28;20215;-69
2020/12/21 09:46:01;;;;;;;29.80;20.10;;;;;;;2.08;100.00;98790.25;4987919;28;20235;-69
2020/12/21 09:48:30;;;;;;;26.33;19.03;;;;;;;2.23;100.00;98788.50;4993599;28;20232;-71
2020/12/21 09:50:57;;;;;;;48.23;33.23;;;;;;;2.35;100.00;98789.53;4996849;28;20202;-71
2020/12/21 09:53:25;;;;;;;33.23;24.10;;;;;;;2.34;100.00;98787.00;4984388;28;20218;-72
2020/12/21 09:55:52;;;;;;;35.13;24.73;;;;;;;2.46;100.00;98791.50;4996207;28;20298;-70
2020/12/21 09:58:19;;;;;;;31.60;22.87;;;;;;;2.51;100.00;98791.22;4989815;28;20577;-71
2020/12/21 10:00:46;;;;;;;31.60;25.10;;;;;;;2.62;100.00;98790.56;4979583;28;20227;-70
2020/12/21 10:03:15;;;;;;;31.83;24.33;;;;;;;2.66;100.00;98784.22;4995885;28;20300;-71
2020/12/21 10:05:42;;;;;;;36.77;23.00;;;;;;;2.65;100.00;98782.53;4987319;28;20212;-71
2020/12/21 10:08:09;;;;;;;36.13;21.93;;;;;;;2.74;100.00;98780.19;5011346;28;20711;-70
2020/12/21 10:10:36;;;;;;;32.17;24.10;;;;;;;2.72;100.00;98781.22;4960265;28;20355;-70
2020/12/21 10:13:03;;;;;;;32.70;22.23;;;;;;;2.70;100.00;98778.72;4971450;28;20845;-71
2020/12/21 10:15:30;;;;;;;33.97;22.80;;;;;;;2.87;100.00;98766.34;4984315;28;20943;-71
2020/12/21 10:17:57;;;;;;;30.80;22.57;;;;;;;2.65;100.00;98772.06;5003394;28;20604;-71
2020/12/21 10:20:25;;;;;;;31.33;22.83;;;;;;;2.74;100.00;98766.25;4973937;28;20213;-71
2020/12/21 10:22:52;;;;;;;30.37;21.83;;;;;;;2.84;100.00;98764.75;5005983;28;20608;-74
2020/12/21 10:25:19;;;;;;;32.23;22.77;;;;;;;2.84;100.00;98758.69;4956881;28;20557;-72
2020/12/21 10:27:47;;;;;;;30.53;23.13;;;;;;;2.69;100.00;98763.09;4996787;28;20235;-72
2020/12/21 10:30:16;;;;;;;36.10;23.17;;;;;;;2.80;100.00;98755.41;5009016;28;20402;-71
2020/12/21 10:32:43;;;;;;;27.57;21.63;;;;;;;2.62;100.00;98752.16;4988264;28;20219;-71
2020/12/21 10:35:10;;;;;;;28.40;20.87;;;;;;;2.68;100.00;98754.41;4990534;28;20734;-72
2020/12/21 10:37:38;;;;;;;35.57;23.03;;;;;;;2.74;100.00;98750.53;5006270;28;20322;-71
2020/12/21 10:40:06;;;;;;;31.83;22.27;;;;;;;2.84;100.00;98742.97;4961060;28;21289;-71
2020/12/21 10:42:33;;;;;;;33.23;23.57;;;;;;;2.79;100.00;98739.81;5011824;28;20212;-71
2020/12/21 10:45:00;;;;;;;32.60;22.33;;;;;;;2.93;100.00;98739.75;4990909;28;20208;-72
2020/12/21 10:47:29;;;;;;;31.27;22.13;;;;;;;2.83;100.00;98741.28;5008893;28;20598;-71
2020/12/21 10:49:56;;;;;;;32.40;22.90;;;;;;;3.00;100.00;98734.97;4995956;28;20200;-72
2020/12/21 10:52:26;;;;;;;28.53;22.10;;;;;;;2.97;100.00;98741.25;5005222;28;20277;-71
2020/12/21 10:54:54;;;;;;;30.90;22.07;;;;;;;2.93;100.00;98736.31;5004784;28;20209;-72
2020/12/21 10:57:21;;;;;;;30.73;22.00;;;;;;;2.94;100.00;98736.22;4963979;28;20923;-71
2020/12/21 10:59:47;;;;;;;31.37;21.13;;;;;;;3.15;100.00;98734.00;4992488;28;20209;-71
2020/12/21 11:02:15;;;;;;;30.90;20.47;;;;;;;3.10;100.00;98735.25;5006184;28;20440;-69
2020/12/21 11:04:42;;;;;;;29.23;20.63;;;;;;;3.07;100.00;98723.19;5006610;28;20215;-71
2020/12/21 11:07:09;;;;;;;36.33;21.93;;;;;;;3.07;100.00;98725.78;4984769;28;20232;-70
2020/12/21 11:09:36;;;;;;;31.57;22.13;;;;;;;3.10;100.00;98728.22;5008139;28;20684;-71
2020/12/21 11:12:04;;;;;;;29.00;22.47;;;;;;;3.19;100.00;98721.56;4964235;28;20807;-70
2020/12/21 11:14:31;;;;;;;28.67;20.37;;;;;;;3.12;100.00;98715.84;4989023;28;20669;-72
2020/12/21 11:17:01;;;;;;;27.67;20.40;;;;;;;3.14;100.00;98727.06;5003887;28;21911;-71
2020/12/21 11:19:29;;;;;;;26.60;20.03;;;;;;;3.12;100.00;98725.50;4996861;28;20204;-71
2020/12/21 11:21:56;;;;;;;28.70;20.93;;;;;;;3.21;100.00;98718.81;4983554;28;20492;-73